カーナーク/チューレ空軍基地 の空港の天気 - METARとTAF

チューレ空軍基地 ( BGTL / THU ) - グリーンランド カーナーク
飛行場実況気象(Metar)
観測時間11/17 13:56 AST (11/17 17:56 UTC)
風向・風速静穏 0m/s
視程10km以上
天気現象
なし
気温-24.6℃
湿度71%
気圧995.2hPa
METARBGTL 171756Z AUTO 00000KT 9999 CLR M25/M28 A2941 RMK AO2 SLP952 T12461283 11238 21265 55003 TSNO $
過去の天気等 Google飛行場航空写真 Wunderground天気予報

過去48時間のMETAR

飛行場予報(TAF)
データがありません